sensor_id;sensor_type;location;lat;lon;timestamp;P1;durP1;ratioP1;P2;durP2;ratioP2
41815;SDS011;27814;53.452;-6.180;2022-07-23T00:01:34;3.00;;;1.10;;
41815;SDS011;27814;53.452;-6.180;2022-07-23T00:04:04;1.30;;;0.80;;
41815;SDS011;27814;53.452;-6.180;2022-07-23T00:06:32;2.85;;;1.27;;
41815;SDS011;27814;53.452;-6.180;2022-07-23T00:09:00;3.80;;;1.30;;
41815;SDS011;27814;53.452;-6.180;2022-07-23T00:11:30;5.05;;;1.40;;
41815;SDS011;27814;53.452;-6.180;2022-07-23T00:13:58;3.70;;;1.30;;
41815;SDS011;27814;53.452;-6.180;2022-07-23T00:16:26;2.83;;;1.38;;
41815;SDS011;27814;53.452;-6.180;2022-07-23T00:18:55;2.58;;;1.17;;
41815;SDS011;27814;53.452;-6.180;2022-07-23T00:21:26;3.00;;;1.35;;
41815;SDS011;27814;53.452;-6.180;2022-07-23T00:23:54;4.53;;;1.25;;
41815;SDS011;27814;53.452;-6.180;2022-07-23T00:26:22;3.00;;;1.40;;
41815;SDS011;27814;53.452;-6.180;2022-07-23T00:28:51;3.53;;;1.30;;
41815;SDS011;27814;53.452;-6.180;2022-07-23T00:31:22;4.13;;;1.30;;
41815;SDS011;27814;53.452;-6.180;2022-07-23T00:33:50;3.90;;;1.13;;
41815;SDS011;27814;53.452;-6.180;2022-07-23T00:36:19;3.55;;;1.38;;
41815;SDS011;27814;53.452;-6.180;2022-07-23T00:38:48;3.97;;;1.10;;
41815;SDS011;27814;53.452;-6.180;2022-07-23T00:41:17;2.67;;;1.00;;
41815;SDS011;27814;53.452;-6.180;2022-07-23T00:43:45;1.67;;;0.98;;
41815;SDS011;27814;53.452;-6.180;2022-07-23T00:46:18;2.88;;;1.10;;
41815;SDS011;27814;53.452;-6.180;2022-07-23T00:48:47;4.03;;;1.17;;
41815;SDS011;27814;53.452;-6.180;2022-07-23T00:51:15;5.03;;;1.05;;
41815;SDS011;27814;53.452;-6.180;2022-07-23T00:53:45;2.45;;;0.90;;
41815;SDS011;27814;53.452;-6.180;2022-07-23T00:56:15;3.40;;;1.00;;
41815;SDS011;27814;53.452;-6.180;2022-07-23T00:58:43;1.65;;;0.90;;
41815;SDS011;27814;53.452;-6.180;2022-07-23T01:01:12;2.07;;;1.00;;
41815;SDS011;27814;53.452;-6.180;2022-07-23T01:03:40;2.35;;;1.20;;
41815;SDS011;27814;53.452;-6.180;2022-07-23T01:06:09;3.35;;;1.17;;
41815;SDS011;27814;53.452;-6.180;2022-07-23T01:08:37;2.53;;;1.00;;
41815;SDS011;27814;53.452;-6.180;2022-07-23T01:11:06;3.00;;;0.95;;
41815;SDS011;27814;53.452;-6.180;2022-07-23T01:13:37;3.80;;;1.10;;
41815;SDS011;27814;53.452;-6.180;2022-07-23T01:16:08;2.50;;;1.17;;
41815;SDS011;27814;53.452;-6.180;2022-07-23T01:18:37;2.05;;;1.30;;
41815;SDS011;27814;53.452;-6.180;2022-07-23T01:21:05;1.40;;;0.90;;
41815;SDS011;27814;53.452;-6.180;2022-07-23T01:23:36;1.58;;;0.90;;
41815;SDS011;27814;53.452;-6.180;2022-07-23T01:26:05;2.38;;;0.98;;
41815;SDS011;27814;53.452;-6.180;2022-07-23T01:28:36;1.85;;;1.10;;
41815;SDS011;27814;53.452;-6.180;2022-07-23T01:31:05;2.20;;;1.00;;
41815;SDS011;27814;53.452;-6.180;2022-07-23T01:33:34;2.25;;;1.00;;
41815;SDS011;27814;53.452;-6.180;2022-07-23T01:36:03;2.77;;;1.10;;
41815;SDS011;27814;53.452;-6.180;2022-07-23T01:38:31;2.70;;;0.90;;
41815;SDS011;27814;53.452;-6.180;2022-07-23T01:41:01;2.20;;;0.80;;
41815;SDS011;27814;53.452;-6.180;2022-07-23T01:43:32;0.93;;;0.75;;
41815;SDS011;27814;53.452;-6.180;2022-07-23T01:46:00;1.30;;;0.80;;
41815;SDS011;27814;53.452;-6.180;2022-07-23T01:48:29;1.40;;;0.80;;
41815;SDS011;27814;53.452;-6.180;2022-07-23T01:50:57;1.27;;;1.02;;
41815;SDS011;27814;53.452;-6.180;2022-07-23T01:53:25;1.93;;;0.80;;
41815;SDS011;27814;53.452;-6.180;2022-07-23T01:55:54;1.23;;;0.80;;
41815;SDS011;27814;53.452;-6.180;2022-07-23T01:58:24;1.85;;;1.00;;
41815;SDS011;27814;53.452;-6.180;2022-07-23T02:00:53;2.08;;;1.00;;
41815;SDS011;27814;53.452;-6.180;2022-07-23T02:03:22;2.25;;;0.90;;
41815;SDS011;27814;53.452;-6.180;2022-07-23T02:05:50;2.72;;;1.10;;
41815;SDS011;27814;53.452;-6.180;2022-07-23T02:08:19;2.15;;;0.90;;
41815;SDS011;27814;53.452;-6.180;2022-07-23T02:10:47;1.98;;;1.20;;
41815;SDS011;27814;53.452;-6.180;2022-07-23T02:13:17;3.13;;;0.98;;
41815;SDS011;27814;53.452;-6.180;2022-07-23T02:15:48;3.10;;;1.02;;
41815;SDS011;27814;53.452;-6.180;2022-07-23T02:18:16;1.65;;;0.82;;
41815;SDS011;27814;53.452;-6.180;2022-07-23T02:20:45;1.80;;;0.90;;
41815;SDS011;27814;53.452;-6.180;2022-07-23T02:23:13;1.40;;;0.90;;
41815;SDS011;27814;53.452;-6.180;2022-07-23T02:25:41;1.10;;;0.70;;
41815;SDS011;27814;53.452;-6.180;2022-07-23T02:28:10;2.10;;;0.90;;
41815;SDS011;27814;53.452;-6.180;2022-07-23T02:30:38;2.22;;;1.00;;
41815;SDS011;27814;53.452;-6.180;2022-07-23T02:33:08;1.80;;;0.83;;
41815;SDS011;27814;53.452;-6.180;2022-07-23T02:35:36;1.48;;;0.80;;
41815;SDS011;27814;53.452;-6.180;2022-07-23T02:38:05;1.33;;;0.83;;
41815;SDS011;27814;53.452;-6.180;2022-07-23T02:40:33;2.20;;;1.00;;
41815;SDS011;27814;53.452;-6.180;2022-07-23T02:43:02;1.67;;;0.90;;
41815;SDS011;27814;53.452;-6.180;2022-07-23T02:45:30;1.40;;;0.80;;
41815;SDS011;27814;53.452;-6.180;2022-07-23T02:47:59;1.65;;;0.98;;
41815;SDS011;27814;53.452;-6.180;2022-07-23T02:50:29;1.58;;;1.00;;
41815;SDS011;27814;53.452;-6.180;2022-07-23T02:52:57;2.67;;;1.20;;
41815;SDS011;27814;53.452;-6.180;2022-07-23T02:55:25;2.83;;;1.00;;
41815;SDS011;27814;53.452;-6.180;2022-07-23T02:57:54;1.92;;;1.20;;
41815;SDS011;27814;53.452;-6.180;2022-07-23T03:00:22;1.63;;;0.93;;
41815;SDS011;27814;53.452;-6.180;2022-07-23T03:02:51;2.42;;;1.30;;
41815;SDS011;27814;53.452;-6.180;2022-07-23T03:05:19;2.13;;;1.20;;
41815;SDS011;27814;53.452;-6.180;2022-07-23T03:07:50;2.35;;;1.33;;
41815;SDS011;27814;53.452;-6.180;2022-07-23T03:10:18;3.75;;;1.38;;
41815;SDS011;27814;53.452;-6.180;2022-07-23T03:12:47;3.92;;;1.35;;
41815;SDS011;27814;53.452;-6.180;2022-07-23T03:15:15;4.30;;;1.55;;
41815;SDS011;27814;53.452;-6.180;2022-07-23T03:17:43;2.92;;;1.55;;
41815;SDS011;27814;53.452;-6.180;2022-07-23T03:20:12;3.67;;;1.70;;
41815;SDS011;27814;53.452;-6.180;2022-07-23T03:22:40;4.07;;;1.63;;
41815;SDS011;27814;53.452;-6.180;2022-07-23T03:25:10;3.17;;;1.52;;
41815;SDS011;27814;53.452;-6.180;2022-07-23T03:27:38;3.30;;;1.80;;
41815;SDS011;27814;53.452;-6.180;2022-07-23T03:30:07;5.78;;;1.75;;
41815;SDS011;27814;53.452;-6.180;2022-07-23T03:32:36;3.35;;;1.60;;
41815;SDS011;27814;53.452;-6.180;2022-07-23T03:35:05;2.53;;;1.37;;
41815;SDS011;27814;53.452;-6.180;2022-07-23T03:37:34;3.67;;;1.40;;
41815;SDS011;27814;53.452;-6.180;2022-07-23T03:40:03;3.78;;;1.67;;
41815;SDS011;27814;53.452;-6.180;2022-07-23T03:42:34;3.37;;;1.60;;
41815;SDS011;27814;53.452;-6.180;2022-07-23T03:45:04;5.13;;;1.73;;
41815;SDS011;27814;53.452;-6.180;2022-07-23T03:47:33;4.20;;;1.60;;
41815;SDS011;27814;53.452;-6.180;2022-07-23T03:50:01;3.40;;;1.48;;
41815;SDS011;27814;53.452;-6.180;2022-07-23T03:52:30;3.08;;;1.48;;
41815;SDS011;27814;53.452;-6.180;2022-07-23T03:54:59;4.45;;;2.00;;
41815;SDS011;27814;53.452;-6.180;2022-07-23T03:57:28;3.70;;;1.50;;
41815;SDS011;27814;53.452;-6.180;2022-07-23T03:59:58;4.80;;;1.80;;
41815;SDS011;27814;53.452;-6.180;2022-07-23T04:02:27;3.90;;;1.80;;
41815;SDS011;27814;53.452;-6.180;2022-07-23T04:04:55;5.00;;;1.77;;
41815;SDS011;27814;53.452;-6.180;2022-07-23T04:07:24;4.28;;;2.10;;
41815;SDS011;27814;53.452;-6.180;2022-07-23T04:09:52;3.38;;;1.60;;
41815;SDS011;27814;53.452;-6.180;2022-07-23T04:12:20;2.97;;;1.70;;
41815;SDS011;27814;53.452;-6.180;2022-07-23T04:14:49;3.75;;;2.05;;
41815;SDS011;27814;53.452;-6.180;2022-07-23T04:17:19;5.05;;;2.00;;
41815;SDS011;27814;53.452;-6.180;2022-07-23T04:19:47;4.75;;;2.08;;
41815;SDS011;27814;53.452;-6.180;2022-07-23T04:22:15;5.60;;;1.92;;
41815;SDS011;27814;53.452;-6.180;2022-07-23T04:24:44;4.32;;;2.00;;
41815;SDS011;27814;53.452;-6.180;2022-07-23T04:27:12;3.88;;;1.95;;
41815;SDS011;27814;53.452;-6.180;2022-07-23T04:29:40;5.72;;;2.38;;
41815;SDS011;27814;53.452;-6.180;2022-07-23T04:32:09;3.83;;;1.73;;
41815;SDS011;27814;53.452;-6.180;2022-07-23T04:34:38;3.80;;;2.00;;
41815;SDS011;27814;53.452;-6.180;2022-07-23T04:37:07;4.68;;;1.73;;
41815;SDS011;27814;53.452;-6.180;2022-07-23T04:39:35;5.83;;;2.27;;
41815;SDS011;27814;53.452;-6.180;2022-07-23T04:42:04;4.38;;;1.85;;
41815;SDS011;27814;53.452;-6.180;2022-07-23T04:44:32;3.42;;;1.60;;
41815;SDS011;27814;53.452;-6.180;2022-07-23T04:47:01;4.20;;;1.60;;
41815;SDS011;27814;53.452;-6.180;2022-07-23T04:49:29;3.20;;;1.85;;
41815;SDS011;27814;53.452;-6.180;2022-07-23T04:51:59;3.60;;;1.95;;
41815;SDS011;27814;53.452;-6.180;2022-07-23T04:54:27;4.68;;;1.50;;
41815;SDS011;27814;53.452;-6.180;2022-07-23T04:56:55;2.58;;;1.60;;
41815;SDS011;27814;53.452;-6.180;2022-07-23T04:59:24;3.45;;;1.98;;
41815;SDS011;27814;53.452;-6.180;2022-07-23T05:01:52;4.55;;;1.95;;
41815;SDS011;27814;53.452;-6.180;2022-07-23T05:04:21;2.05;;;1.40;;
41815;SDS011;27814;53.452;-6.180;2022-07-23T05:06:49;2.97;;;1.92;;
41815;SDS011;27814;53.452;-6.180;2022-07-23T05:09:19;6.00;;;1.92;;
41815;SDS011;27814;53.452;-6.180;2022-07-23T05:11:47;4.63;;;1.90;;
41815;SDS011;27814;53.452;-6.180;2022-07-23T05:14:15;3.70;;;1.90;;
41815;SDS011;27814;53.452;-6.180;2022-07-23T05:16:44;2.42;;;1.83;;
41815;SDS011;27814;53.452;-6.180;2022-07-23T05:19:12;5.55;;;2.08;;
41815;SDS011;27814;53.452;-6.180;2022-07-23T05:21:41;4.57;;;1.92;;
41815;SDS011;27814;53.452;-6.180;2022-07-23T05:24:09;4.88;;;2.17;;
41815;SDS011;27814;53.452;-6.180;2022-07-23T05:26:39;4.20;;;2.35;;
41815;SDS011;27814;53.452;-6.180;2022-07-23T05:29:08;4.00;;;2.20;;
41815;SDS011;27814;53.452;-6.180;2022-07-23T05:31:36;4.55;;;2.10;;
41815;SDS011;27814;53.452;-6.180;2022-07-23T05:34:05;4.93;;;2.17;;
41815;SDS011;27814;53.452;-6.180;2022-07-23T05:36:33;5.43;;;2.42;;
41815;SDS011;27814;53.452;-6.180;2022-07-23T05:39:02;4.40;;;1.90;;
41815;SDS011;27814;53.452;-6.180;2022-07-23T05:41:31;3.83;;;2.17;;
41815;SDS011;27814;53.452;-6.180;2022-07-23T05:44:00;4.43;;;2.17;;
41815;SDS011;27814;53.452;-6.180;2022-07-23T05:46:29;4.53;;;2.05;;
41815;SDS011;27814;53.452;-6.180;2022-07-23T05:48:57;4.78;;;2.30;;
41815;SDS011;27814;53.452;-6.180;2022-07-23T05:51:26;5.38;;;2.50;;
41815;SDS011;27814;53.452;-6.180;2022-07-23T05:53:54;5.68;;;2.28;;
41815;SDS011;27814;53.452;-6.180;2022-07-23T05:56:23;4.18;;;2.33;;
41815;SDS011;27814;53.452;-6.180;2022-07-23T05:58:51;3.53;;;2.35;;
41815;SDS011;27814;53.452;-6.180;2022-07-23T06:01:21;4.55;;;2.40;;
41815;SDS011;27814;53.452;-6.180;2022-07-23T06:03:49;6.82;;;2.50;;
41815;SDS011;27814;53.452;-6.180;2022-07-23T06:06:18;4.80;;;2.22;;
41815;SDS011;27814;53.452;-6.180;2022-07-23T06:08:46;5.87;;;2.43;;
41815;SDS011;27814;53.452;-6.180;2022-07-23T06:11:15;4.70;;;2.30;;
41815;SDS011;27814;53.452;-6.180;2022-07-23T06:13:43;3.67;;;2.20;;
41815;SDS011;27814;53.452;-6.180;2022-07-23T06:16:11;4.40;;;2.27;;
41815;SDS011;27814;53.452;-6.180;2022-07-23T06:18:41;5.30;;;2.22;;
41815;SDS011;27814;53.452;-6.180;2022-07-23T06:21:10;3.58;;;2.00;;
41815;SDS011;27814;53.452;-6.180;2022-07-23T06:23:58;5.80;;;2.38;;
41815;SDS011;27814;53.452;-6.180;2022-07-23T06:26:27;6.10;;;2.30;;
41815;SDS011;27814;53.452;-6.180;2022-07-23T06:28:55;5.15;;;2.03;;
41815;SDS011;27814;53.452;-6.180;2022-07-23T06:31:24;4.68;;;2.35;;
41815;SDS011;27814;53.452;-6.180;2022-07-23T06:33:54;3.58;;;2.08;;
41815;SDS011;27814;53.452;-6.180;2022-07-23T06:36:22;4.85;;;2.05;;
41815;SDS011;27814;53.452;-6.180;2022-07-23T06:38:51;4.45;;;2.25;;
41815;SDS011;27814;53.452;-6.180;2022-07-23T06:41:19;4.50;;;2.28;;
41815;SDS011;27814;53.452;-6.180;2022-07-23T06:43:49;3.58;;;2.00;;
41815;SDS011;27814;53.452;-6.180;2022-07-23T06:46:17;5.15;;;1.90;;
41815;SDS011;27814;53.452;-6.180;2022-07-23T06:48:47;5.07;;;2.15;;
41815;SDS011;27814;53.452;-6.180;2022-07-23T06:51:17;2.55;;;1.85;;
41815;SDS011;27814;53.452;-6.180;2022-07-23T06:53:45;5.47;;;2.15;;
41815;SDS011;27814;53.452;-6.180;2022-07-23T06:56:14;4.72;;;2.05;;
41815;SDS011;27814;53.452;-6.180;2022-07-23T06:58:42;4.97;;;2.30;;
41815;SDS011;27814;53.452;-6.180;2022-07-23T07:01:10;5.35;;;2.10;;
41815;SDS011;27814;53.452;-6.180;2022-07-23T07:03:39;4.55;;;2.20;;
41815;SDS011;27814;53.452;-6.180;2022-07-23T07:06:07;3.65;;;2.03;;
41815;SDS011;27814;53.452;-6.180;2022-07-23T07:08:37;6.10;;;2.00;;
41815;SDS011;27814;53.452;-6.180;2022-07-23T07:11:05;5.13;;;2.10;;
41815;SDS011;27814;53.452;-6.180;2022-07-23T07:13:35;6.38;;;2.20;;
41815;SDS011;27814;53.452;-6.180;2022-07-23T07:16:04;4.18;;;1.98;;
41815;SDS011;27814;53.452;-6.180;2022-07-23T07:18:32;5.20;;;2.13;;
41815;SDS011;27814;53.452;-6.180;2022-07-23T07:21:01;3.88;;;1.88;;
41815;SDS011;27814;53.452;-6.180;2022-07-23T07:23:29;5.55;;;2.10;;
41815;SDS011;27814;53.452;-6.180;2022-07-23T07:25:59;3.63;;;2.05;;
41815;SDS011;27814;53.452;-6.180;2022-07-23T07:28:28;6.78;;;2.50;;
41815;SDS011;27814;53.452;-6.180;2022-07-23T07:30:56;5.05;;;2.30;;
41815;SDS011;27814;53.452;-6.180;2022-07-23T07:33:25;3.65;;;1.95;;
41815;SDS011;27814;53.452;-6.180;2022-07-23T07:35:53;3.40;;;2.10;;
41815;SDS011;27814;53.452;-6.180;2022-07-23T07:38:22;5.90;;;1.98;;
41815;SDS011;27814;53.452;-6.180;2022-07-23T07:40:51;4.40;;;2.20;;
41815;SDS011;27814;53.452;-6.180;2022-07-23T07:43:21;5.03;;;2.15;;
41815;SDS011;27814;53.452;-6.180;2022-07-23T07:45:49;5.00;;;2.40;;
41815;SDS011;27814;53.452;-6.180;2022-07-23T07:48:18;4.18;;;2.60;;
41815;SDS011;27814;53.452;-6.180;2022-07-23T07:50:46;7.25;;;2.22;;
41815;SDS011;27814;53.452;-6.180;2022-07-23T07:53:15;6.63;;;2.27;;
41815;SDS011;27814;53.452;-6.180;2022-07-23T07:55:43;4.55;;;2.42;;
41815;SDS011;27814;53.452;-6.180;2022-07-23T07:58:17;3.53;;;2.28;;
41815;SDS011;27814;53.452;-6.180;2022-07-23T08:00:47;5.97;;;2.80;;
41815;SDS011;27814;53.452;-6.180;2022-07-23T08:03:15;7.68;;;3.17;;
41815;SDS011;27814;53.452;-6.180;2022-07-23T08:05:45;6.32;;;3.30;;
41815;SDS011;27814;53.452;-6.180;2022-07-23T08:08:13;5.53;;;3.13;;
41815;SDS011;27814;53.452;-6.180;2022-07-23T08:10:42;6.38;;;3.22;;
41815;SDS011;27814;53.452;-6.180;2022-07-23T08:13:12;6.25;;;2.60;;
41815;SDS011;27814;53.452;-6.180;2022-07-23T08:15:42;6.55;;;2.67;;
41815;SDS011;27814;53.452;-6.180;2022-07-23T08:18:13;5.25;;;2.55;;
41815;SDS011;27814;53.452;-6.180;2022-07-23T08:20:42;6.93;;;2.60;;
41815;SDS011;27814;53.452;-6.180;2022-07-23T08:23:10;5.65;;;2.83;;
41815;SDS011;27814;53.452;-6.180;2022-07-23T08:25:39;4.78;;;2.50;;
41815;SDS011;27814;53.452;-6.180;2022-07-23T08:28:10;6.37;;;2.93;;
41815;SDS011;27814;53.452;-6.180;2022-07-23T08:30:41;5.25;;;2.88;;
41815;SDS011;27814;53.452;-6.180;2022-07-23T08:33:12;8.63;;;3.35;;
41815;SDS011;27814;53.452;-6.180;2022-07-23T08:35:59;6.70;;;3.38;;
41815;SDS011;27814;53.452;-6.180;2022-07-23T08:38:29;7.27;;;2.93;;
41815;SDS011;27814;53.452;-6.180;2022-07-23T08:40:59;6.35;;;3.05;;
41815;SDS011;27814;53.452;-6.180;2022-07-23T08:43:28;6.28;;;2.72;;
41815;SDS011;27814;53.452;-6.180;2022-07-23T08:45:58;6.45;;;2.88;;
41815;SDS011;27814;53.452;-6.180;2022-07-23T08:48:29;4.72;;;2.63;;
41815;SDS011;27814;53.452;-6.180;2022-07-23T08:51:00;5.47;;;2.70;;
41815;SDS011;27814;53.452;-6.180;2022-07-23T08:53:33;5.07;;;2.33;;
41815;SDS011;27814;53.452;-6.180;2022-07-23T08:56:04;5.97;;;2.65;;
41815;SDS011;27814;53.452;-6.180;2022-07-23T08:58:35;7.47;;;3.10;;
41815;SDS011;27814;53.452;-6.180;2022-07-23T09:01:03;6.75;;;2.55;;
41815;SDS011;27814;53.452;-6.180;2022-07-23T09:03:34;11.32;;;3.83;;
41815;SDS011;27814;53.452;-6.180;2022-07-23T09:06:04;7.00;;;3.13;;
41815;SDS011;27814;53.452;-6.180;2022-07-23T09:08:34;8.35;;;3.20;;
41815;SDS011;27814;53.452;-6.180;2022-07-23T09:11:04;7.07;;;3.10;;
41815;SDS011;27814;53.452;-6.180;2022-07-23T09:13:35;6.85;;;2.80;;
41815;SDS011;27814;53.452;-6.180;2022-07-23T09:16:06;5.55;;;2.50;;
41815;SDS011;27814;53.452;-6.180;2022-07-23T09:18:42;4.88;;;2.47;;
41815;SDS011;27814;53.452;-6.180;2022-07-23T09:21:16;7.13;;;2.45;;
41815;SDS011;27814;53.452;-6.180;2022-07-23T09:23:47;7.25;;;2.55;;
41815;SDS011;27814;53.452;-6.180;2022-07-23T09:26:22;7.13;;;2.83;;
41815;SDS011;27814;53.452;-6.180;2022-07-23T09:28:56;6.83;;;2.70;;
41815;SDS011;27814;53.452;-6.180;2022-07-23T09:31:30;8.85;;;2.95;;
41815;SDS011;27814;53.452;-6.180;2022-07-23T09:34:08;7.43;;;2.72;;
41815;SDS011;27814;53.452;-6.180;2022-07-23T09:36:39;8.25;;;2.75;;
41815;SDS011;27814;53.452;-6.180;2022-07-23T09:39:08;8.70;;;3.38;;
41815;SDS011;27814;53.452;-6.180;2022-07-23T09:41:39;8.32;;;2.95;;
41815;SDS011;27814;53.452;-6.180;2022-07-23T09:44:11;6.25;;;2.50;;
41815;SDS011;27814;53.452;-6.180;2022-07-23T09:46:42;6.72;;;3.00;;
41815;SDS011;27814;53.452;-6.180;2022-07-23T09:49:15;9.87;;;2.97;;
41815;SDS011;27814;53.452;-6.180;2022-07-23T09:51:49;9.35;;;3.30;;
41815;SDS011;27814;53.452;-6.180;2022-07-23T09:54:27;8.63;;;2.83;;
41815;SDS011;27814;53.452;-6.180;2022-07-23T09:57:01;6.70;;;2.80;;
41815;SDS011;27814;53.452;-6.180;2022-07-23T09:59:33;9.70;;;2.90;;
41815;SDS011;27814;53.452;-6.180;2022-07-23T10:02:04;7.80;;;3.00;;
41815;SDS011;27814;53.452;-6.180;2022-07-23T10:04:35;8.55;;;3.15;;
41815;SDS011;27814;53.452;-6.180;2022-07-23T10:07:04;8.00;;;3.05;;
41815;SDS011;27814;53.452;-6.180;2022-07-23T10:09:36;9.20;;;2.78;;
41815;SDS011;27814;53.452;-6.180;2022-07-23T10:12:08;7.97;;;2.47;;
41815;SDS011;27814;53.452;-6.180;2022-07-23T10:14:58;6.82;;;2.47;;
41815;SDS011;27814;53.452;-6.180;2022-07-23T10:17:27;5.75;;;2.22;;
41815;SDS011;27814;53.452;-6.180;2022-07-23T10:19:58;7.20;;;2.13;;
41815;SDS011;27814;53.452;-6.180;2022-07-23T10:22:28;5.80;;;2.03;;
41815;SDS011;27814;53.452;-6.180;2022-07-23T10:25:00;4.90;;;1.90;;
41815;SDS011;27814;53.452;-6.180;2022-07-23T10:27:51;5.07;;;2.00;;
41815;SDS011;27814;53.452;-6.180;2022-07-23T10:30:34;7.38;;;1.92;;
41815;SDS011;27814;53.452;-6.180;2022-07-23T10:33:14;6.63;;;2.03;;
41815;SDS011;27814;53.452;-6.180;2022-07-23T10:35:50;5.50;;;1.95;;
41815;SDS011;27814;53.452;-6.180;2022-07-23T10:38:25;5.63;;;1.80;;
41815;SDS011;27814;53.452;-6.180;2022-07-23T10:40:59;4.60;;;1.80;;
41815;SDS011;27814;53.452;-6.180;2022-07-23T10:43:29;4.55;;;1.50;;
41815;SDS011;27814;53.452;-6.180;2022-07-23T10:54:48;4.97;;;1.50;;
41815;SDS011;27814;53.452;-6.180;2022-07-23T10:57:18;4.72;;;1.48;;
41815;SDS011;27814;53.452;-6.180;2022-07-23T11:02:44;3.25;;;1.35;;
41815;SDS011;27814;53.452;-6.180;2022-07-23T11:05:14;5.72;;;1.52;;
41815;SDS011;27814;53.452;-6.180;2022-07-23T11:10:50;3.03;;;1.17;;
41815;SDS011;27814;53.452;-6.180;2022-07-23T11:13:40;4.43;;;1.50;;
41815;SDS011;27814;53.452;-6.180;2022-07-23T11:16:24;4.50;;;1.30;;
41815;SDS011;27814;53.452;-6.180;2022-07-23T11:19:02;4.18;;;1.60;;
41815;SDS011;27814;53.452;-6.180;2022-07-23T11:21:41;5.80;;;1.70;;
41815;SDS011;27814;53.452;-6.180;2022-07-23T11:24:15;5.35;;;1.65;;
41815;SDS011;27814;53.452;-6.180;2022-07-23T11:26:46;5.55;;;1.77;;
41815;SDS011;27814;53.452;-6.180;2022-07-23T11:32:30;4.95;;;1.40;;
41815;SDS011;27814;53.452;-6.180;2022-07-23T11:35:02;6.15;;;1.85;;
41815;SDS011;27814;53.452;-6.180;2022-07-23T11:37:45;6.07;;;1.40;;
41815;SDS011;27814;53.452;-6.180;2022-07-23T11:40:17;3.55;;;1.20;;
41815;SDS011;27814;53.452;-6.180;2022-07-23T11:42:53;4.32;;;1.35;;
41815;SDS011;27814;53.452;-6.180;2022-07-23T11:45:25;5.30;;;1.40;;
41815;SDS011;27814;53.452;-6.180;2022-07-23T11:47:57;4.13;;;1.50;;
41815;SDS011;27814;53.452;-6.180;2022-07-23T11:50:26;5.20;;;1.48;;
41815;SDS011;27814;53.452;-6.180;2022-07-23T11:52:55;5.28;;;1.50;;
41815;SDS011;27814;53.452;-6.180;2022-07-23T11:55:25;3.35;;;1.40;;
41815;SDS011;27814;53.452;-6.180;2022-07-23T11:57:54;4.75;;;1.35;;
41815;SDS011;27814;53.452;-6.180;2022-07-23T12:00:26;5.93;;;1.17;;
41815;SDS011;27814;53.452;-6.180;2022-07-23T12:02:57;4.72;;;1.17;;
41815;SDS011;27814;53.452;-6.180;2022-07-23T12:05:28;3.75;;;1.08;;
41815;SDS011;27814;53.452;-6.180;2022-07-23T12:07:58;2.25;;;0.95;;
41815;SDS011;27814;53.452;-6.180;2022-07-23T12:10:30;2.08;;;0.80;;
41815;SDS011;27814;53.452;-6.180;2022-07-23T12:13:02;2.28;;;0.90;;
41815;SDS011;27814;53.452;-6.180;2022-07-23T12:15:33;3.97;;;0.77;;
41815;SDS011;27814;53.452;-6.180;2022-07-23T12:18:06;0.80;;;0.50;;
41815;SDS011;27814;53.452;-6.180;2022-07-23T12:20:37;1.58;;;0.50;;
41815;SDS011;27814;53.452;-6.180;2022-07-23T12:23:07;1.98;;;0.60;;
41815;SDS011;27814;53.452;-6.180;2022-07-23T12:25:41;3.00;;;0.60;;
41815;SDS011;27814;53.452;-6.180;2022-07-23T12:28:11;2.38;;;0.60;;
41815;SDS011;27814;53.452;-6.180;2022-07-23T12:30:42;5.25;;;1.33;;
41815;SDS011;27814;53.452;-6.180;2022-07-23T12:33:13;6.28;;;1.90;;
41815;SDS011;27814;53.452;-6.180;2022-07-23T12:35:43;7.43;;;1.70;;
41815;SDS011;27814;53.452;-6.180;2022-07-23T12:38:13;5.03;;;1.73;;
41815;SDS011;27814;53.452;-6.180;2022-07-23T12:40:45;6.25;;;1.63;;
41815;SDS011;27814;53.452;-6.180;2022-07-23T12:43:19;7.22;;;1.90;;
41815;SDS011;27814;53.452;-6.180;2022-07-23T12:45:50;4.55;;;1.40;;
41815;SDS011;27814;53.452;-6.180;2022-07-23T12:48:21;4.25;;;1.35;;
41815;SDS011;27814;53.452;-6.180;2022-07-23T12:50:52;9.07;;;1.60;;
41815;SDS011;27814;53.452;-6.180;2022-07-23T12:53:22;6.20;;;1.80;;
41815;SDS011;27814;53.452;-6.180;2022-07-23T12:55:58;7.35;;;1.60;;
41815;SDS011;27814;53.452;-6.180;2022-07-23T12:58:44;5.45;;;1.20;;
41815;SDS011;27814;53.452;-6.180;2022-07-23T13:01:24;3.72;;;1.40;;
41815;SDS011;27814;53.452;-6.180;2022-07-23T13:04:01;3.25;;;1.10;;
41815;SDS011;27814;53.452;-6.180;2022-07-23T13:06:39;3.53;;;1.10;;
41815;SDS011;27814;53.452;-6.180;2022-07-23T13:09:11;3.55;;;0.85;;
41815;SDS011;27814;53.452;-6.180;2022-07-23T13:11:43;4.05;;;1.50;;
41815;SDS011;27814;53.452;-6.180;2022-07-23T13:14:13;4.28;;;1.00;;
41815;SDS011;27814;53.452;-6.180;2022-07-23T13:16:46;4.72;;;1.10;;
41815;SDS011;27814;53.452;-6.180;2022-07-23T13:19:17;4.75;;;1.05;;
41815;SDS011;27814;53.452;-6.180;2022-07-23T13:21:47;6.93;;;1.33;;
41815;SDS011;27814;53.452;-6.180;2022-07-23T13:24:16;2.97;;;0.90;;
41815;SDS011;27814;53.452;-6.180;2022-07-23T13:26:46;3.53;;;0.98;;
41815;SDS011;27814;53.452;-6.180;2022-07-23T13:29:18;2.45;;;0.55;;
41815;SDS011;27814;53.452;-6.180;2022-07-23T13:31:47;1.35;;;0.60;;
41815;SDS011;27814;53.452;-6.180;2022-07-23T13:34:16;3.20;;;0.90;;
41815;SDS011;27814;53.452;-6.180;2022-07-23T13:36:45;3.15;;;0.60;;
41815;SDS011;27814;53.452;-6.180;2022-07-23T13:39:15;2.58;;;0.77;;
41815;SDS011;27814;53.452;-6.180;2022-07-23T13:41:43;3.13;;;0.90;;
41815;SDS011;27814;53.452;-6.180;2022-07-23T13:44:17;1.98;;;0.68;;
41815;SDS011;27814;53.452;-6.180;2022-07-23T13:46:48;5.00;;;1.20;;
41815;SDS011;27814;53.452;-6.180;2022-07-23T13:49:17;5.83;;;1.43;;
41815;SDS011;27814;53.452;-6.180;2022-07-23T13:51:47;8.95;;;1.50;;
41815;SDS011;27814;53.452;-6.180;2022-07-23T13:54:16;5.80;;;1.45;;
41815;SDS011;27814;53.452;-6.180;2022-07-23T13:56:44;6.40;;;1.50;;
41815;SDS011;27814;53.452;-6.180;2022-07-23T13:59:13;6.35;;;1.60;;
41815;SDS011;27814;53.452;-6.180;2022-07-23T14:01:43;9.13;;;1.55;;
41815;SDS011;27814;53.452;-6.180;2022-07-23T14:04:33;4.70;;;1.60;;
41815;SDS011;27814;53.452;-6.180;2022-07-23T14:07:01;3.60;;;0.93;;
41815;SDS011;27814;53.452;-6.180;2022-07-23T14:09:30;2.88;;;1.00;;
41815;SDS011;27814;53.452;-6.180;2022-07-23T14:12:00;2.30;;;0.80;;
41815;SDS011;27814;53.452;-6.180;2022-07-23T14:14:28;2.30;;;0.70;;
41815;SDS011;27814;53.452;-6.180;2022-07-23T14:16:58;4.43;;;1.02;;
41815;SDS011;27814;53.452;-6.180;2022-07-23T14:19:27;3.35;;;0.80;;
41815;SDS011;27814;53.452;-6.180;2022-07-23T14:21:56;2.47;;;0.88;;
41815;SDS011;27814;53.452;-6.180;2022-07-23T14:24:25;5.65;;;1.10;;
41815;SDS011;27814;53.452;-6.180;2022-07-23T14:26:59;7.30;;;1.00;;
41815;SDS011;27814;53.452;-6.180;2022-07-23T14:29:29;3.70;;;0.93;;
41815;SDS011;27814;53.452;-6.180;2022-07-23T14:31:59;3.67;;;0.80;;
41815;SDS011;27814;53.452;-6.180;2022-07-23T14:34:29;3.60;;;0.90;;
41815;SDS011;27814;53.452;-6.180;2022-07-23T14:37:00;3.85;;;0.70;;
41815;SDS011;27814;53.452;-6.180;2022-07-23T14:39:29;3.03;;;0.77;;
41815;SDS011;27814;53.452;-6.180;2022-07-23T14:41:58;4.50;;;0.70;;
41815;SDS011;27814;53.452;-6.180;2022-07-23T14:44:26;2.17;;;0.68;;
41815;SDS011;27814;53.452;-6.180;2022-07-23T14:46:55;3.17;;;0.52;;
41815;SDS011;27814;53.452;-6.180;2022-07-23T14:49:25;4.60;;;1.08;;
41815;SDS011;27814;53.452;-6.180;2022-07-23T14:51:53;2.95;;;0.70;;
41815;SDS011;27814;53.452;-6.180;2022-07-23T14:54:22;2.95;;;0.60;;
41815;SDS011;27814;53.452;-6.180;2022-07-23T14:56:52;2.88;;;0.70;;
41815;SDS011;27814;53.452;-6.180;2022-07-23T14:59:21;2.05;;;0.77;;
41815;SDS011;27814;53.452;-6.180;2022-07-23T15:01:50;2.00;;;0.70;;
41815;SDS011;27814;53.452;-6.180;2022-07-23T15:04:19;3.40;;;0.90;;
41815;SDS011;27814;53.452;-6.180;2022-07-23T15:07:05;5.88;;;1.08;;
41815;SDS011;27814;53.452;-6.180;2022-07-23T15:09:35;4.55;;;0.90;;